createdAt,value
2022-10-05T00:01:33.812Z,10.20
2022-10-05T00:05:33.963Z,10.30
2022-10-05T00:09:32.800Z,13.20
2022-10-05T00:13:32.610Z,7.30
2022-10-05T00:17:10.637Z,10.10
2022-10-05T00:21:25.397Z,10.90
2022-10-05T00:25:24.650Z,9.00
2022-10-05T00:29:24.287Z,13.10
2022-10-05T00:33:22.113Z,10.30
2022-10-05T00:37:34.097Z,9.80
2022-10-05T00:42:00.101Z,7.40
2022-10-05T00:46:34.321Z,13.50
2022-10-05T00:50:50.801Z,6.40
2022-10-05T00:55:13.963Z,8.70
2022-10-05T00:59:44.196Z,8.10
2022-10-05T01:04:13.561Z,10.00
2022-10-05T01:08:48.956Z,11.20
2022-10-05T01:13:45.797Z,6.50
2022-10-05T01:18:03.174Z,9.70
2022-10-05T01:22:14.285Z,11.40
2022-10-05T01:27:04.122Z,8.40
2022-10-05T01:31:33.442Z,10.70
2022-10-05T01:35:55.284Z,9.30
2022-10-05T01:40:06.837Z,8.30
2022-10-05T01:44:15.636Z,10.70
2022-10-05T01:48:29.543Z,9.50
2022-10-05T01:52:48.458Z,10.10
2022-10-05T01:57:11.120Z,8.90
2022-10-05T02:01:32.595Z,9.40
2022-10-05T02:05:41.359Z,10.10
2022-10-05T02:10:02.795Z,11.50
2022-10-05T02:14:11.497Z,9.60
2022-10-05T02:18:16.317Z,10.80
2022-10-05T02:22:39.634Z,10.10
2022-10-05T02:26:40.795Z,9.10
2022-10-05T02:30:54.379Z,11.40
2022-10-05T02:34:52.956Z,11.50
2022-10-05T02:38:53.634Z,15.50
2022-10-05T02:43:10.380Z,10.00
2022-10-05T02:47:34.114Z,7.30
2022-10-05T02:51:40.799Z,14.90
2022-10-05T02:55:57.794Z,9.80
2022-10-05T03:00:33.674Z,12.10
2022-10-05T03:05:17.614Z,13.20
2022-10-05T03:09:21.281Z,8.00
2022-10-05T03:13:52.435Z,10.50
2022-10-05T03:18:30.801Z,8.40
2022-10-05T03:23:04.137Z,11.70
2022-10-05T03:27:15.474Z,9.50
2022-10-05T03:31:36.723Z,11.30
2022-10-05T03:35:35.318Z,7.50
2022-10-05T03:39:48.214Z,10.10
2022-10-05T03:44:25.786Z,7.90
2022-10-05T03:48:35.761Z,8.80
2022-10-05T03:52:56.274Z,11.90
2022-10-05T03:57:07.575Z,9.90
2022-10-05T04:01:13.375Z,6.60
2022-10-05T04:05:12.594Z,10.80
2022-10-05T04:09:15.797Z,10.30
2022-10-05T04:13:40.678Z,11.60
2022-10-05T04:17:43.393Z,14.50
2022-10-05T04:21:48.576Z,9.00
2022-10-05T04:25:52.928Z,9.70
2022-10-05T04:30:00.947Z,7.10
2022-10-05T04:34:26.878Z,6.80
2022-10-05T04:39:11.787Z,5.90
2022-10-05T04:43:30.103Z,10.50
2022-10-05T04:47:58.712Z,11.80
2022-10-05T04:52:06.534Z,8.60
2022-10-05T04:56:18.401Z,13.30
2022-10-05T05:00:57.875Z,6.50
2022-10-05T05:05:21.909Z,9.70
2022-10-05T05:09:40.017Z,9.90
2022-10-05T05:13:17.657Z,8.60
2022-10-05T05:17:32.108Z,11.20
2022-10-05T05:21:42.347Z,7.80
2022-10-05T05:25:56.543Z,7.30
2022-10-05T05:30:19.075Z,10.30
2022-10-05T05:34:37.978Z,10.20
2022-10-05T05:38:50.429Z,9.30
2022-10-05T05:43:30.044Z,9.10
2022-10-05T05:47:41.020Z,11.20
2022-10-05T05:52:16.612Z,6.20
2022-10-05T05:55:38.928Z,8.90
2022-10-05T05:59:33.130Z,7.50
2022-10-05T06:03:43.268Z,11.40
2022-10-05T06:08:02.076Z,9.10
2022-10-05T06:12:42.628Z,9.10
2022-10-05T06:16:49.815Z,12.20
2022-10-05T06:20:57.174Z,9.90
2022-10-05T06:25:12.199Z,8.20
2022-10-05T06:29:19.555Z,8.50
2022-10-05T06:33:46.508Z,7.70
2022-10-05T06:38:15.415Z,8.80
2022-10-05T06:43:00.704Z,7.40
2022-10-05T06:47:23.068Z,7.10
2022-10-05T06:52:22.087Z,7.10
2022-10-05T06:56:31.584Z,6.80
2022-10-05T07:00:44.196Z,6.10
2022-10-05T07:04:52.766Z,9.30
2022-10-05T07:09:25.935Z,10.60
2022-10-05T07:13:47.603Z,9.20
2022-10-05T07:18:18.479Z,8.30
2022-10-05T07:22:54.533Z,9.60
2022-10-05T07:27:20.682Z,10.60
2022-10-05T07:31:49.960Z,10.40
2022-10-05T07:36:27.402Z,11.00
2022-10-05T07:40:38.200Z,9.10
2022-10-05T07:44:48.726Z,7.20
2022-10-05T07:49:16.448Z,9.60
2022-10-05T07:54:10.990Z,8.00
2022-10-05T07:58:48.800Z,9.80
2022-10-05T08:02:58.651Z,10.30
2022-10-05T08:06:32.399Z,9.10
2022-10-05T08:10:47.339Z,9.40
2022-10-05T08:15:00.608Z,11.70
2022-10-05T08:19:21.572Z,10.00
2022-10-05T08:23:19.974Z,9.40
2022-10-05T08:31:52.629Z,11.20
2022-10-05T08:36:13.260Z,10.40
2022-10-05T08:39:49.524Z,9.50
2022-10-05T08:44:00.352Z,11.20
2022-10-05T08:48:38.678Z,8.70
2022-10-05T08:53:20.382Z,10.10
2022-10-05T08:56:28.811Z,6.80
2022-10-05T09:00:53.360Z,10.20
2022-10-05T09:05:12.209Z,8.60
2022-10-05T09:09:06.712Z,9.70
2022-10-05T09:13:31.823Z,8.20
2022-10-05T09:18:09.399Z,9.20
2022-10-05T09:22:38.912Z,12.40
2022-10-05T09:27:02.733Z,8.20
2022-10-05T09:31:23.342Z,13.60
2022-10-05T09:35:43.626Z,11.60
2022-10-05T09:45:08.846Z,7.30
2022-10-05T09:48:39.707Z,8.70
2022-10-05T09:53:07.652Z,15.30
2022-10-05T09:56:21.580Z,11.10
2022-10-05T10:00:29.131Z,9.90
2022-10-05T10:05:07.207Z,9.80
2022-10-05T10:08:48.054Z,10.60
2022-10-05T10:12:14.272Z,8.30
2022-10-05T10:16:26.451Z,10.40
2022-10-05T10:20:31.312Z,12.40
2022-10-05T10:24:49.371Z,8.90
2022-10-05T10:28:24.162Z,11.70
2022-10-05T10:33:00.037Z,9.40
2022-10-05T10:37:04.327Z,12.40
2022-10-05T10:41:38.464Z,14.90
2022-10-05T10:46:06.812Z,9.50
2022-10-05T10:50:08.493Z,7.80
2022-10-05T10:54:04.235Z,8.90
2022-10-05T10:58:21.526Z,8.40
2022-10-05T11:02:37.562Z,9.90
2022-10-05T11:07:11.987Z,9.80
2022-10-05T11:11:31.138Z,12.70
2022-10-05T11:15:09.833Z,10.90
2022-10-05T11:20:02.927Z,10.80
2022-10-05T11:24:29.750Z,9.90
2022-10-05T11:29:06.126Z,8.90
2022-10-05T11:33:44.307Z,9.80
2022-10-05T11:38:20.440Z,9.20
2022-10-05T11:42:40.013Z,9.60
2022-10-05T11:46:59.141Z,11.30
2022-10-05T11:50:55.502Z,10.20
2022-10-05T11:55:12.626Z,7.30
2022-10-05T11:59:17.044Z,11.80
2022-10-05T12:03:30.811Z,8.20
2022-10-05T12:08:12.135Z,9.70
2022-10-05T12:12:27.576Z,12.20
2022-10-05T12:16:45.398Z,6.00
2022-10-05T12:21:09.610Z,7.30
2022-10-05T12:25:17.344Z,10.10
2022-10-05T12:29:36.121Z,8.10
2022-10-05T12:34:09.497Z,7.90
2022-10-05T12:38:41.335Z,9.20
2022-10-05T12:43:05.829Z,8.90
2022-10-05T12:46:50.114Z,10.20
2022-10-05T12:50:54.941Z,9.20
2022-10-05T12:55:26.240Z,9.10
2022-10-05T12:59:38.295Z,9.40
2022-10-05T13:03:52.832Z,9.80
2022-10-05T13:08:08.998Z,7.20
2022-10-05T13:12:49.366Z,11.00
2022-10-05T13:17:06.997Z,7.30
2022-10-05T13:21:31.045Z,10.90
2022-10-05T13:26:19.859Z,12.10
2022-10-05T13:30:22.511Z,9.10
2022-10-05T13:42:05.074Z,8.60
2022-10-05T13:46:16.057Z,9.20
2022-10-05T13:50:50.123Z,11.00
2022-10-05T13:55:07.302Z,11.40
2022-10-05T13:59:17.973Z,7.20
2022-10-05T14:03:37.642Z,7.60
2022-10-05T14:07:49.465Z,10.20
2022-10-05T14:11:51.832Z,10.60
2022-10-05T14:16:14.428Z,10.20
2022-10-05T14:19:48.937Z,7.90
2022-10-05T14:23:32.754Z,11.50
2022-10-05T14:26:59.800Z,12.80
2022-10-05T14:30:35.584Z,9.00
2022-10-05T14:34:35.659Z,11.70
2022-10-05T14:38:00.503Z,11.90
2022-10-05T14:41:28.649Z,10.10
2022-10-05T14:45:22.008Z,13.60
2022-10-05T14:48:44.593Z,10.90
2022-10-05T14:52:33.015Z,11.90
2022-10-05T14:56:25.599Z,10.30
2022-10-05T14:59:55.315Z,10.60
2022-10-05T15:03:32.576Z,9.30
2022-10-05T15:07:32.422Z,10.00
2022-10-05T15:10:43.750Z,15.00
2022-10-05T15:14:43.763Z,9.10
2022-10-05T15:17:52.771Z,9.90
2022-10-05T15:21:35.726Z,9.40
2022-10-05T15:25:11.772Z,9.20
2022-10-05T15:28:51.722Z,13.00
2022-10-05T15:32:31.434Z,10.30
2022-10-05T15:36:12.708Z,8.80
2022-10-05T15:39:54.967Z,12.40
2022-10-05T15:43:16.702Z,11.80
2022-10-05T15:46:51.399Z,11.20
2022-10-05T15:50:19.341Z,9.30
2022-10-05T15:54:30.982Z,10.20
2022-10-05T15:57:58.475Z,10.30
2022-10-05T16:01:10.827Z,11.90
2022-10-05T16:05:04.494Z,15.40
2022-10-05T16:08:56.075Z,9.70
2022-10-05T16:12:28.786Z,12.00
2022-10-05T16:15:48.740Z,10.70
2022-10-05T16:19:27.321Z,9.50
2022-10-05T16:26:51.995Z,14.30
2022-10-05T16:30:09.790Z,10.60
2022-10-05T16:33:54.620Z,12.60
2022-10-05T16:37:38.795Z,13.80
2022-10-05T16:41:10.159Z,13.20
2022-10-05T16:44:34.176Z,7.90
2022-10-05T16:48:13.645Z,10.80
2022-10-05T16:52:10.955Z,11.10
2022-10-05T16:55:35.801Z,12.30
2022-10-05T16:59:04.555Z,14.60
2022-10-05T17:02:56.769Z,12.80
2022-10-05T17:06:21.081Z,13.20
2022-10-05T17:10:11.919Z,12.90
2022-10-05T17:13:50.364Z,11.50
2022-10-05T17:17:08.372Z,13.10
2022-10-05T17:20:42.568Z,15.00
2022-10-05T17:24:51.918Z,12.50
2022-10-05T17:28:11.960Z,14.40
2022-10-05T17:31:31.429Z,15.80
2022-10-05T17:35:20.466Z,14.30
2022-10-05T17:38:52.384Z,13.20
2022-10-05T17:42:34.555Z,12.80
2022-10-05T17:46:06.939Z,14.80
2022-10-05T17:49:40.041Z,14.20
2022-10-05T17:53:57.090Z,15.50
2022-10-05T17:56:57.463Z,16.00
2022-10-05T18:01:01.882Z,17.10
2022-10-05T18:04:13.701Z,16.00
2022-10-05T18:08:08.606Z,15.00
2022-10-05T18:11:38.041Z,18.00
2022-10-05T18:15:05.612Z,16.20
2022-10-05T18:18:44.195Z,17.50
2022-10-05T18:22:18.011Z,18.70
2022-10-05T18:25:51.270Z,20.90
2022-10-05T18:29:56.510Z,18.90
2022-10-05T18:33:40.534Z,18.70
2022-10-05T18:36:55.123Z,18.40
2022-10-05T18:40:42.187Z,18.60
2022-10-05T18:44:16.486Z,16.70
2022-10-05T18:47:59.254Z,23.40
2022-10-05T18:51:39.409Z,13.80
2022-10-05T18:55:10.561Z,18.40
2022-10-05T18:58:56.749Z,18.90
2022-10-05T19:02:13.667Z,18.60
2022-10-05T19:05:55.591Z,18.30
2022-10-05T19:19:43.760Z,17.20
2022-10-05T19:23:23.621Z,18.10
2022-10-05T19:27:10.004Z,17.80
2022-10-05T19:30:44.135Z,18.70
2022-10-05T19:34:04.961Z,16.70
2022-10-05T19:37:34.224Z,18.60
2022-10-05T19:40:59.562Z,20.00
2022-10-05T19:44:59.671Z,16.80
2022-10-05T19:48:20.371Z,17.60
2022-10-05T19:51:51.335Z,19.20
2022-10-05T19:55:34.852Z,18.00
2022-10-05T19:59:27.681Z,16.40
2022-10-05T20:02:42.203Z,19.20
2022-10-05T20:06:24.986Z,16.80
2022-10-05T20:10:05.295Z,17.80
2022-10-05T20:13:36.959Z,19.10
2022-10-05T20:17:49.946Z,18.10
2022-10-05T20:20:55.657Z,20.20
2022-10-05T20:24:51.219Z,18.60
2022-10-05T20:28:08.141Z,17.90
2022-10-05T20:31:42.071Z,20.00
2022-10-05T20:35:23.123Z,19.60
2022-10-05T20:39:00.232Z,18.70
2022-10-05T20:42:32.243Z,19.90
2022-10-05T20:46:08.967Z,16.80
2022-10-05T20:49:49.625Z,21.70
2022-10-05T20:57:01.053Z,19.60
2022-10-05T21:00:55.118Z,17.70
2022-10-05T21:04:13.416Z,21.10
2022-10-05T21:07:49.927Z,18.30
2022-10-05T21:11:27.131Z,19.80
2022-10-05T21:15:07.228Z,19.50
2022-10-05T21:18:41.236Z,20.20
2022-10-05T21:22:16.860Z,21.70
2022-10-05T21:25:55.164Z,20.30
2022-10-05T21:29:31.666Z,19.80
2022-10-05T21:33:07.425Z,21.10
2022-10-05T21:47:13.018Z,19.40
2022-10-05T21:50:13.306Z,19.90
2022-10-05T21:54:14.080Z,21.00
2022-10-05T21:57:27.338Z,18.30
2022-10-05T22:01:03.904Z,20.80
2022-10-05T22:04:40.755Z,15.20
2022-10-05T22:08:27.640Z,18.40
2022-10-05T22:11:55.036Z,17.00
2022-10-05T22:15:32.145Z,18.10
2022-10-05T22:19:16.244Z,19.80
2022-10-05T22:22:44.744Z,18.10
2022-10-05T22:26:23.330Z,18.90
2022-10-05T22:29:58.881Z,17.80
2022-10-05T22:33:43.481Z,19.60
2022-10-05T22:37:13.342Z,20.90
2022-10-05T22:40:48.917Z,19.90
2022-10-05T22:44:25.997Z,18.40
2022-10-05T22:48:02.261Z,17.00
2022-10-05T22:51:39.336Z,19.10
2022-10-05T22:55:16.194Z,17.40
2022-10-05T22:58:52.893Z,16.70
2022-10-05T23:02:35.780Z,16.60
2022-10-05T23:06:09.802Z,15.10
2022-10-05T23:09:43.724Z,17.70
2022-10-05T23:13:21.221Z,14.10
2022-10-05T23:17:00.064Z,11.60
2022-10-05T23:20:39.738Z,12.40
2022-10-05T23:24:10.524Z,14.80
2022-10-05T23:27:49.779Z,12.00
2022-10-05T23:31:30.365Z,13.20
2022-10-05T23:35:04.597Z,10.20
2022-10-05T23:38:48.805Z,14.80
2022-10-05T23:42:24.282Z,12.40
2022-10-05T23:45:51.546Z,11.90
2022-10-05T23:49:28.450Z,12.70
2022-10-05T23:53:05.202Z,11.50
2022-10-05T23:56:42.822Z,10.90
